createdAt,value
2023-02-17T00:02:54.056Z,18
2023-02-17T00:07:57.100Z,17.2
2023-02-17T00:12:54.067Z,17.2
2023-02-17T00:17:54.063Z,17
2023-02-17T00:22:54.044Z,17.2
2023-02-17T00:27:54.096Z,16.8
2023-02-17T00:32:54.099Z,16.4
2023-02-17T00:37:54.123Z,16.4
2023-02-17T00:42:54.105Z,16.1
2023-02-17T00:47:54.095Z,14.8
2023-02-17T00:52:54.086Z,14.8
2023-02-17T00:57:54.573Z,13.2
2023-02-17T01:02:54.048Z,13.2
2023-02-17T01:07:54.360Z,13.2
2023-02-17T01:12:54.047Z,13.2
2023-02-17T01:18:13.479Z,13.6
2023-02-17T01:22:54.696Z,13.6
2023-02-17T01:27:54.177Z,13.6
2023-02-17T01:32:54.089Z,13.6
2023-02-17T01:37:54.581Z,13.1
2023-02-17T01:42:54.078Z,12.2
2023-02-17T01:47:54.064Z,12.8
2023-02-17T01:52:54.093Z,12.8
2023-02-17T01:57:54.192Z,11.8
2023-02-17T02:02:54.496Z,11.8
2023-02-17T02:07:55.494Z,11.8
2023-02-17T02:12:54.080Z,11.8
2023-02-17T02:17:54.076Z,12.4
2023-02-17T02:22:54.552Z,12.4
2023-02-17T02:27:54.055Z,12.4
2023-02-17T02:32:54.106Z,13
2023-02-17T02:37:54.061Z,13
2023-02-17T02:42:54.104Z,13
2023-02-17T02:47:54.058Z,13
2023-02-17T02:52:54.070Z,12.2
2023-02-17T02:57:54.160Z,11.4
2023-02-17T03:02:54.281Z,11.4
2023-02-17T03:07:54.097Z,11.4
2023-02-17T03:12:54.082Z,11.5
2023-02-17T03:17:54.142Z,10.7
2023-02-17T03:22:54.083Z,11.5
2023-02-17T03:27:55.628Z,11.5
2023-02-17T03:32:54.110Z,11.6
2023-02-17T03:37:54.112Z,11.6
2023-02-17T03:42:54.093Z,11.6
2023-02-17T03:47:54.098Z,11.9
2023-02-17T03:52:54.096Z,11.9
2023-02-17T03:57:54.166Z,11.9
2023-02-17T04:02:55.057Z,11.9
2023-02-17T04:07:54.121Z,11.3
2023-02-17T04:12:54.076Z,11.3
2023-02-17T04:17:54.607Z,11.3
2023-02-17T04:22:54.635Z,11.1
2023-02-17T04:27:54.110Z,10
2023-02-17T04:32:54.139Z,9.8
2023-02-17T04:37:54.110Z,9.8
2023-02-17T04:42:54.153Z,9.8
2023-02-17T04:47:54.388Z,9.8
2023-02-17T04:52:54.123Z,9.7
2023-02-17T04:57:54.098Z,9.7
2023-02-17T05:02:54.431Z,9.7
2023-02-17T05:07:54.083Z,10.8
2023-02-17T05:12:54.158Z,10.8
2023-02-17T05:17:54.108Z,10.8
2023-02-17T05:22:54.198Z,10.8
2023-02-17T05:27:54.363Z,10.8
2023-02-17T05:32:54.052Z,11
2023-02-17T05:37:54.172Z,11.3
2023-02-17T05:42:54.123Z,11.6
2023-02-17T05:47:54.085Z,11.3
2023-02-17T05:52:54.275Z,11.6
2023-02-17T05:57:54.110Z,11.9
2023-02-17T06:02:54.155Z,11.9
2023-02-17T06:07:54.161Z,12.5
2023-02-17T06:12:54.086Z,11.9
2023-02-17T06:17:54.089Z,10.6
2023-02-17T06:22:54.330Z,10.6
2023-02-17T06:27:54.629Z,10.6
2023-02-17T06:32:54.093Z,10.6
2023-02-17T06:37:54.180Z,11.1
2023-02-17T06:42:54.605Z,10.5
2023-02-17T06:47:54.149Z,10.2
2023-02-17T06:52:54.363Z,10.7
2023-02-17T06:57:54.167Z,11.1
2023-02-17T07:02:54.315Z,11.1
2023-02-17T07:07:54.148Z,10.7
2023-02-17T07:12:54.171Z,10.7
2023-02-17T07:17:55.169Z,11.1
2023-02-17T07:22:54.160Z,11.1
2023-02-17T07:27:54.145Z,11.1
2023-02-17T07:32:54.239Z,10.2
2023-02-17T07:37:54.168Z,10.1
2023-02-17T07:42:54.167Z,9.8
2023-02-17T07:47:54.135Z,9.1
2023-02-17T07:52:54.204Z,9.1
2023-02-17T07:57:55.224Z,9.1
2023-02-17T08:02:54.096Z,9.1
2023-02-17T08:07:54.396Z,9.1
2023-02-17T08:12:54.103Z,8.6
2023-02-17T08:17:54.161Z,8.6
2023-02-17T08:22:54.154Z,8.6
2023-02-17T08:27:54.429Z,8.6
2023-02-17T08:32:54.113Z,8.5
2023-02-17T08:37:54.138Z,8.5
2023-02-17T08:42:54.350Z,8.4
2023-02-17T08:47:54.224Z,8.5
2023-02-17T08:52:54.200Z,8.8
2023-02-17T08:57:54.240Z,8.8
2023-02-17T09:02:54.671Z,8.8
2023-02-17T09:07:54.654Z,8.8
2023-02-17T09:12:54.120Z,7.7
2023-02-17T09:17:54.629Z,8.3
2023-02-17T09:22:54.181Z,7.7
2023-02-17T09:27:54.197Z,7.7
2023-02-17T09:32:54.163Z,7.2
2023-02-17T09:37:54.195Z,6.9
2023-02-17T09:42:54.203Z,6.9
2023-02-17T09:47:54.148Z,6.9
2023-02-17T09:52:54.185Z,6.9
2023-02-17T09:57:54.230Z,7.6
2023-02-17T10:02:54.141Z,7.6
2023-02-17T10:07:54.171Z,7.6
2023-02-17T10:12:54.248Z,7.9
2023-02-17T10:17:54.235Z,7.8
2023-02-17T10:22:54.199Z,7.9
2023-02-17T10:27:54.246Z,8.1
2023-02-17T10:32:54.466Z,7.9
2023-02-17T10:37:54.198Z,7.8
2023-02-17T10:42:54.191Z,7.8
2023-02-17T10:47:54.163Z,7.8
2023-02-17T10:52:54.159Z,7.8
2023-02-17T10:57:54.261Z,7.4
2023-02-17T11:02:54.161Z,7.4
2023-02-17T11:07:54.170Z,7.4
2023-02-17T11:12:54.172Z,7.4
2023-02-17T11:17:54.456Z,7.2
2023-02-17T11:22:54.164Z,7.2
2023-02-17T11:27:54.165Z,7
2023-02-17T11:32:54.179Z,6.9
2023-02-17T11:37:54.144Z,6.4
2023-02-17T11:42:54.206Z,6.9
2023-02-17T11:47:54.162Z,6.4
2023-02-17T11:52:54.138Z,6.4
2023-02-17T11:57:54.434Z,6.9
2023-02-17T12:02:54.235Z,6.9
2023-02-17T12:07:54.160Z,6.9
2023-02-17T12:12:54.200Z,6.9
2023-02-17T12:17:54.640Z,6.9
2023-02-17T12:22:54.685Z,6.9
2023-02-17T12:27:54.159Z,6.5
2023-02-17T12:32:55.751Z,6.3
2023-02-17T12:37:54.148Z,6.3
2023-02-17T12:42:54.187Z,6.3
2023-02-17T12:47:54.192Z,6.3
2023-02-17T12:52:54.464Z,6.2
2023-02-17T12:57:54.264Z,6.2
2023-02-17T13:02:54.224Z,6.2
2023-02-17T13:07:54.513Z,6.2
2023-02-17T13:12:54.220Z,5.8
2023-02-17T13:17:54.230Z,4.9
2023-02-17T13:22:55.506Z,4.9
2023-02-17T13:27:54.242Z,4.7
2023-02-17T13:32:54.257Z,4.7
2023-02-17T13:37:54.314Z,4.7
2023-02-17T13:42:54.335Z,4.7
2023-02-17T13:47:54.321Z,4.7
2023-02-17T13:52:54.407Z,4.7
2023-02-17T13:57:54.485Z,4
2023-02-17T14:02:54.245Z,4
2023-02-17T14:07:54.286Z,4
2023-02-17T14:12:55.413Z,4
2023-02-17T14:17:54.404Z,4
2023-02-17T14:23:03.859Z,3.9
2023-02-17T14:27:54.348Z,3.9
2023-02-17T14:32:54.408Z,3.9
2023-02-17T14:37:54.287Z,4.2
2023-02-17T14:42:54.218Z,3.5
2023-02-17T14:47:54.249Z,3.5
2023-02-17T14:52:54.507Z,3.5
2023-02-17T14:57:54.459Z,3.5
2023-02-17T15:02:54.251Z,3.5
2023-02-17T15:07:54.240Z,3.5
2023-02-17T15:12:54.265Z,3.5
2023-02-17T15:17:54.312Z,3.5
2023-02-17T15:22:54.231Z,3.5
2023-02-17T15:27:54.270Z,3.4
2023-02-17T15:32:54.230Z,3.4
2023-02-17T15:37:54.390Z,3.4
2023-02-17T15:42:55.506Z,3.4
2023-02-17T15:47:54.250Z,3.4
2023-02-17T15:52:54.287Z,3
2023-02-17T15:57:54.225Z,3.4
2023-02-17T16:02:54.567Z,3.4
2023-02-17T16:07:54.295Z,3
2023-02-17T16:12:54.299Z,3
2023-02-17T16:17:54.296Z,3.4
2023-02-17T16:22:54.440Z,3.4
2023-02-17T16:27:54.260Z,4
2023-02-17T16:32:54.432Z,5.2
2023-02-17T16:37:54.433Z,5.2
2023-02-17T16:42:54.402Z,7.4
2023-02-17T16:47:54.399Z,7.4
2023-02-17T16:52:54.409Z,5.2
2023-02-17T16:57:54.464Z,4.9
2023-02-17T17:02:54.266Z,5.2
2023-02-17T17:07:54.269Z,7.4
2023-02-17T17:12:54.312Z,7.4
2023-02-17T17:17:54.177Z,5
2023-02-17T17:22:54.263Z,5
2023-02-17T17:27:54.229Z,6.3
2023-02-17T17:32:54.311Z,6.3
2023-02-17T17:37:54.437Z,5
2023-02-17T17:42:54.428Z,5
2023-02-17T17:47:54.220Z,6.3
2023-02-17T17:52:54.280Z,6.3
2023-02-17T17:57:54.315Z,4.9
2023-02-17T18:02:54.284Z,4.6
2023-02-17T18:07:54.271Z,4.6
2023-02-17T18:12:54.791Z,6.2
2023-02-17T18:17:54.290Z,4.6
2023-02-17T18:22:54.324Z,4.6
2023-02-17T18:27:54.268Z,5.7
2023-02-17T18:32:54.225Z,5.7
2023-02-17T18:37:54.215Z,5.7
2023-02-17T18:42:54.237Z,4.9
2023-02-17T18:47:54.477Z,4.9
2023-02-17T18:52:54.279Z,5.7
2023-02-17T18:57:54.409Z,5.6
2023-02-17T19:02:54.461Z,5.6
2023-02-17T19:07:54.802Z,6.1
2023-02-17T19:12:54.925Z,6.8
2023-02-17T19:17:54.418Z,7.2
2023-02-17T19:22:55.079Z,7.2
2023-02-17T19:27:54.268Z,7.2
2023-02-17T19:32:54.448Z,7.6
2023-02-17T19:37:54.450Z,7.6
2023-02-17T19:42:54.268Z,7.6
2023-02-17T19:47:54.315Z,7.2
2023-02-17T19:52:55.756Z,6.5
2023-02-17T19:57:54.473Z,6.4
2023-02-17T20:02:54.462Z,6.1
2023-02-17T20:07:54.270Z,5.8
2023-02-17T20:12:54.252Z,5.6
2023-02-17T20:17:54.261Z,5.5
2023-02-17T20:22:54.545Z,5.5
2023-02-17T20:27:54.307Z,5.4
2023-02-17T20:32:54.615Z,5.5
2023-02-17T20:37:55.301Z,5.6
2023-02-17T20:42:55.592Z,5.5
2023-02-17T20:47:54.278Z,5.5
2023-02-17T20:52:55.780Z,5.5
2023-02-17T20:57:54.575Z,5.5
2023-02-17T21:02:54.535Z,5.5
2023-02-17T21:07:54.793Z,5.5
2023-02-17T21:12:54.248Z,5.5
2023-02-17T21:17:54.407Z,5.5
2023-02-17T21:22:54.417Z,6.2
2023-02-17T21:27:54.478Z,6.4
2023-02-17T21:32:54.302Z,6.8
2023-02-17T21:37:54.428Z,6.8
2023-02-17T21:42:54.293Z,6.8
2023-02-17T21:47:54.464Z,6.8
2023-02-17T21:52:54.315Z,6.1
2023-02-17T21:57:54.466Z,6
2023-02-17T22:02:54.286Z,5
2023-02-17T22:07:54.561Z,5
2023-02-17T22:12:54.361Z,5
2023-02-17T22:17:54.315Z,5
2023-02-17T22:22:54.289Z,5
2023-02-17T22:27:54.259Z,5.2
2023-02-17T22:32:54.276Z,5.4
2023-02-17T22:37:54.303Z,5.4
2023-02-17T22:42:54.732Z,5.6
2023-02-17T22:47:54.291Z,5.7
2023-02-17T22:52:54.330Z,6.5
2023-02-17T22:57:54.486Z,6.8
2023-02-17T23:02:54.298Z,6.8
2023-02-17T23:07:54.454Z,6.8
2023-02-17T23:12:55.081Z,6.5
2023-02-17T23:17:54.589Z,6.8
2023-02-17T23:22:54.599Z,6.4
2023-02-17T23:27:54.452Z,6.4
2023-02-17T23:32:54.621Z,6.4
2023-02-17T23:37:54.360Z,6.4
2023-02-17T23:42:54.490Z,7.5
2023-02-17T23:47:54.481Z,7.8
2023-02-17T23:52:54.490Z,7.5
2023-02-17T23:57:54.514Z,7.8
